Terminal Aerodrome Forecast
Issued by NWS Northern Indiana

Home | Current Version | Previous Version | Text Only | Print | Product List | Glossary On
Versions: 1 2 3 4 5 6 7 8 9 10 11 12 13 14 15 16 17 18 19
503
FTUS43 KIWX 231739
TAFFWA
TAF
KFWA 231739Z 2318/2418 10004KT P6SM SCT050 BKN150
     FM241200 08004KT 6SM -SHRA OVC050=

USA.gov is the U.S. government's official web portal to all federal, state and local government web resources and services.